Time;durP1;ratioP1;P1;durP2;ratioP2;P2;SDS_P1;SDS_P2;PMS_P1;PMS_P2;Temp;Humidity;BMP_temperature;BMP_pressure;BME280_temperature;BME280_humidity;BME280_pressure;Samples;Min_cycle;Max_cycle;Signal;HPM_P1;HPM_P2
2022/09/18 00:01:00;;;;;;;4.17;2.00;;;8.80;87.10;;;;;;5009238;28;20443;-60
2022/09/18 00:03:27;;;;;;;4.40;1.67;;;8.80;87.70;;;;;;4977236;28;20526;-60
2022/09/18 00:05:53;;;;;;;3.37;1.17;;;8.80;88.20;;;;;;4989980;28;20440;-60
2022/09/18 00:08:19;;;;;;;0.97;0.60;;;8.80;87.80;;;;;;5007276;28;20433;-60
2022/09/18 00:10:48;;;;;;;2.30;1.00;;;8.80;89.10;;;;;;5007869;28;20205;-61
2022/09/18 00:13:14;;;;;;;1.40;0.97;;;8.90;88.70;;;;;;4981217;28;20240;-60
2022/09/18 00:15:40;;;;;;;2.13;0.73;;;8.70;88.10;;;;;;4996679;28;20436;-60
2022/09/18 00:18:07;;;;;;;2.13;0.80;;;8.80;89.20;;;;;;5006529;28;20444;-60
2022/09/18 00:20:34;;;;;;;0.83;0.70;;;8.80;89.00;;;;;;4986799;28;20653;-60
2022/09/18 00:23:00;;;;;;;1.00;0.77;;;8.80;88.90;;;;;;5007084;28;20475;-60
2022/09/18 00:25:26;;;;;;;1.00;0.90;;;8.80;89.10;;;;;;5001208;28;20451;-60
2022/09/18 00:27:52;;;;;;;1.70;1.00;;;8.80;88.90;;;;;;4980676;28;20283;-60
2022/09/18 00:30:18;;;;;;;1.80;0.90;;;8.80;88.60;;;;;;5015515;28;20483;-61
2022/09/18 00:32:43;;;;;;;1.37;0.60;;;8.80;88.90;;;;;;5031634;28;20247;-60
2022/09/18 00:35:09;;;;;;;0.90;0.80;;;8.70;88.20;;;;;;5012783;28;20204;-60
2022/09/18 00:37:34;;;;;;;1.33;0.80;;;8.80;88.60;;;;;;5004872;28;20212;-60
2022/09/18 00:40:00;;;;;;;2.07;1.10;;;8.80;89.00;;;;;;5024062;28;20199;-60
2022/09/18 00:42:26;;;;;;;0.93;0.70;;;8.80;88.70;;;;;;5002606;28;20221;-60
2022/09/18 00:44:52;;;;;;;3.43;1.03;;;8.80;88.80;;;;;;4989491;28;20436;-60
2022/09/18 00:47:47;;;;;;;4.17;1.07;;;8.70;88.10;;;;;;4995677;28;20192;-60
2022/09/18 00:50:22;;;;;;;1.50;0.53;;;8.50;87.70;;;;;;5023947;28;20189;-60
2022/09/18 00:53:01;;;;;;;1.50;0.87;;;8.40;88.10;;;;;;5017528;28;20444;-60
2022/09/18 00:55:37;;;;;;;1.70;1.03;;;8.40;87.90;;;;;;5016934;28;20438;-60
2022/09/18 00:58:03;;;;;;;1.33;1.03;;;8.40;88.00;;;;;;4982273;28;20594;-60
2022/09/18 01:00:30;;;;;;;2.67;0.80;;;8.40;88.30;;;;;;4978193;28;20431;-60
2022/09/18 01:03:03;;;;;;;0.83;0.70;;;8.40;88.50;;;;;;5024216;28;20515;-60
2022/09/18 01:05:56;;;;;;;0.60;0.60;;;8.30;88.60;;;;;;5028624;28;20468;-60
2022/09/18 01:08:25;;;;;;;2.30;0.87;;;8.30;88.20;;;;;;5011397;28;20432;-61
2022/09/18 01:11:09;;;;;;;0.60;0.60;;;8.20;87.80;;;;;;5018494;28;20421;-60
2022/09/18 01:14:14;;;;;;;0.57;0.57;;;8.10;88.40;;;;;;5015035;28;20440;-60
2022/09/18 01:17:07;;;;;;;0.53;0.53;;;8.10;88.50;;;;;;5019253;28;20537;-60
2022/09/18 01:20:00;;;;;;;1.77;0.80;;;8.10;88.40;;;;;;5012168;28;20527;-60
2022/09/18 01:23:00;;;;;;;2.33;0.90;;;8.10;89.00;;;;;;5022189;28;20604;-60
2022/09/18 01:25:49;;;;;;;1.83;0.90;;;8.20;88.80;;;;;;4990398;28;20423;-60
2022/09/18 01:28:37;;;;;;;5.03;1.00;;;8.10;88.20;;;;;;4989741;28;20436;-60
2022/09/18 01:31:12;;;;;;;2.20;0.80;;;8.10;88.40;;;;;;4978076;28;20481;-60
2022/09/18 01:33:51;;;;;;;0.97;0.60;;;8.10;88.30;;;;;;4988663;28;20484;-60
2022/09/18 01:36:20;;;;;;;2.33;0.73;;;8.10;88.80;;;;;;4984287;28;20435;-60
2022/09/18 01:39:04;;;;;;;2.50;0.70;;;8.00;88.70;;;;;;5024034;28;20484;-60
2022/09/18 01:41:30;;;;;;;1.00;0.90;;;8.00;88.50;;;;;;5012027;28;20502;-60
2022/09/18 01:44:05;;;;;;;2.43;1.30;;;8.00;88.30;;;;;;4978896;28;20487;-60
2022/09/18 01:46:33;;;;;;;4.43;0.60;;;8.00;88.60;;;;;;4977245;28;20484;-60
2022/09/18 01:49:10;;;;;;;1.07;0.77;;;8.00;88.30;;;;;;5009967;28;20439;-60
2022/09/18 01:51:57;;;;;;;0.80;0.60;;;7.90;88.00;;;;;;4979541;28;20444;-60
2022/09/18 01:54:26;;;;;;;0.60;0.60;;;8.00;88.80;;;;;;4987002;28;20432;-60
2022/09/18 01:56:56;;;;;;;2.90;0.77;;;8.00;88.80;;;;;;4983477;28;20422;-60
2022/09/18 01:59:28;;;;;;;0.87;0.57;;;8.00;88.80;;;;;;5012582;28;20988;-60
2022/09/18 02:01:57;;;;;;;3.40;0.73;;;8.00;88.40;;;;;;5014204;28;20498;-60
2022/09/18 02:04:31;;;;;;;1.37;0.60;;;7.90;88.40;;;;;;5021436;28;20481;-60
2022/09/18 02:06:59;;;;;;;3.23;0.50;;;7.90;88.70;;;;;;4979113;28;20896;-60
2022/09/18 02:09:25;;;;;;;2.40;0.80;;;8.00;89.30;;;;;;4987953;28;20848;-60
2022/09/18 02:11:55;;;;;;;0.70;0.60;;;8.00;88.80;;;;;;5039725;28;20419;-60
2022/09/18 02:14:37;;;;;;;0.50;0.50;;;7.80;88.10;;;;;;4987997;28;20483;-60
2022/09/18 02:17:08;;;;;;;1.67;0.87;;;7.80;88.60;;;;;;5015495;28;20531;-60
2022/09/18 02:19:42;;;;;;;4.33;0.80;;;7.80;88.70;;;;;;5017971;28;20438;-60
2022/09/18 02:22:13;;;;;;;0.73;0.60;;;7.80;88.80;;;;;;4983882;28;20444;-60
2022/09/18 02:24:42;;;;;;;2.43;0.60;;;7.90;89.20;;;;;;5018927;28;20433;-60
2022/09/18 02:27:10;;;;;;;2.43;0.70;;;8.00;88.90;;;;;;4976238;28;20435;-60
2022/09/18 02:29:36;;;;;;;1.13;0.53;;;8.00;88.90;;;;;;5006579;28;20515;-60
2022/09/18 02:32:03;;;;;;;0.57;0.57;;;8.00;88.70;;;;;;4999471;28;20440;-60
2022/09/18 02:34:30;;;;;;;2.50;0.80;;;7.90;88.40;;;;;;5009686;28;20431;-60
2022/09/18 02:37:28;;;;;;;1.53;0.63;;;7.90;88.40;;;;;;4994709;28;20452;-60
2022/09/18 02:40:15;;;;;;;0.80;0.60;;;7.80;88.10;;;;;;4986666;28;20475;-60
2022/09/18 02:42:41;;;;;;;0.60;0.60;;;7.70;87.80;;;;;;4988065;28;20984;-60
2022/09/18 02:45:09;;;;;;;0.83;0.73;;;7.60;87.50;;;;;;5008794;28;20429;-60
2022/09/18 02:47:55;;;;;;;2.47;0.80;;;7.50;87.90;;;;;;4978242;28;20216;-60
2022/09/18 02:50:23;;;;;;;0.73;0.73;;;7.50;88.90;;;;;;5016768;28;20443;-60
2022/09/18 02:53:15;;;;;;;1.00;0.70;;;7.50;89.20;;;;;;5017824;28;20441;-60
2022/09/18 02:55:49;;;;;;;0.70;0.70;;;7.60;89.20;;;;;;4991662;28;20518;-60
2022/09/18 02:58:34;;;;;;;0.60;0.60;;;7.60;88.50;;;;;;5013129;28;20509;-60
2022/09/18 03:01:03;;;;;;;2.13;0.70;;;7.60;88.80;;;;;;5015310;28;20432;-60
2022/09/18 03:03:31;;;;;;;0.80;0.50;;;7.60;88.90;;;;;;5022938;28;20476;-60
2022/09/18 03:05:57;;;;;;;0.70;0.70;;;7.60;88.70;;;;;;5020889;28;20435;-60
2022/09/18 03:08:23;;;;;;;0.80;0.70;;;7.60;88.60;;;;;;4996005;28;20439;-60
2022/09/18 03:10:49;;;;;;;0.70;0.70;;;7.60;88.50;;;;;;5019577;28;20248;-60
2022/09/18 03:13:15;;;;;;;2.50;0.80;;;7.50;88.30;;;;;;4977671;28;20540;-60
2022/09/18 03:15:41;;;;;;;4.57;0.57;;;7.50;88.60;;;;;;5010100;28;20280;-60
2022/09/18 03:18:07;;;;;;;1.63;0.90;;;7.60;88.60;;;;;;5006358;28;20468;-60
2022/09/18 03:20:32;;;;;;;1.90;0.70;;;7.60;88.30;;;;;;5008628;28;20243;-60
2022/09/18 03:22:58;;;;;;;1.60;0.70;;;7.60;88.30;;;;;;5000329;28;20209;-60
2022/09/18 03:25:24;;;;;;;1.97;0.57;;;7.50;87.70;;;;;;5025033;28;20187;-60
2022/09/18 03:27:54;;;;;;;2.53;0.60;;;7.30;87.80;;;;;;4978670;28;20180;-60
2022/09/18 03:30:20;;;;;;;8.67;2.20;;;7.30;88.20;;;;;;5006096;28;20273;-60
2022/09/18 03:32:46;;;;;;;1.07;0.63;;;7.30;88.40;;;;;;4976261;28;20488;-60
2022/09/18 03:35:12;;;;;;;3.03;0.70;;;7.30;88.50;;;;;;4981415;28;20195;-60
2022/09/18 03:37:37;;;;;;;1.33;0.87;;;7.40;88.70;;;;;;5009058;28;20453;-60
2022/09/18 03:40:04;;;;;;;0.87;0.80;;;7.40;88.30;;;;;;4973079;28;20200;-60
2022/09/18 03:42:29;;;;;;;2.93;0.80;;;7.30;87.50;;;;;;5000651;28;20209;-60
2022/09/18 03:44:56;;;;;;;0.57;0.53;;;7.40;88.50;;;;;;5006035;28;20436;-60
2022/09/18 03:47:23;;;;;;;2.10;1.00;;;7.30;88.60;;;;;;5007959;28;20195;-60
2022/09/18 03:49:48;;;;;;;2.00;0.90;;;7.40;89.00;;;;;;4987270;28;20440;-60
2022/09/18 03:52:14;;;;;;;3.80;0.80;;;7.50;89.30;;;;;;5018261;28;20440;-60
2022/09/18 03:54:40;;;;;;;1.03;0.70;;;7.40;88.10;;;;;;4976672;28;20195;-60
2022/09/18 03:57:05;;;;;;;2.07;0.70;;;7.40;88.80;;;;;;4999533;28;20197;-60
2022/09/18 03:59:31;;;;;;;1.90;0.70;;;7.50;89.10;;;;;;5000084;28;20189;-60
2022/09/18 04:01:57;;;;;;;2.23;0.77;;;7.50;88.60;;;;;;5009033;28;20217;-60
2022/09/18 04:04:23;;;;;;;1.43;1.00;;;7.50;88.10;;;;;;5007434;28;20262;-60
2022/09/18 04:06:49;;;;;;;1.17;0.93;;;7.50;88.50;;;;;;5001818;28;20200;-60
2022/09/18 04:09:15;;;;;;;0.80;0.70;;;7.40;88.30;;;;;;4999042;28;20288;-60
2022/09/18 04:11:41;;;;;;;1.40;0.77;;;7.40;88.50;;;;;;4987130;28;20444;-60
2022/09/18 04:14:06;;;;;;;0.80;0.80;;;7.50;88.40;;;;;;5005666;28;20441;-60
2022/09/18 04:16:32;;;;;;;3.10;0.70;;;7.50;88.60;;;;;;4995054;28;20284;-60
2022/09/18 04:18:58;;;;;;;1.00;0.73;;;7.40;88.50;;;;;;5003025;28;20203;-60
2022/09/18 04:21:24;;;;;;;3.00;0.87;;;7.50;88.90;;;;;;5002744;28;20200;-60
2022/09/18 04:23:50;;;;;;;0.70;0.70;;;7.50;88.70;;;;;;4986024;28;20197;-60
2022/09/18 04:26:15;;;;;;;4.83;1.20;;;7.60;89.00;;;;;;4977373;28;20440;-60
2022/09/18 04:28:41;;;;;;;2.80;1.00;;;7.60;89.20;;;;;;5039829;28;20191;-60
2022/09/18 04:31:07;;;;;;;1.70;0.80;;;7.70;89.70;;;;;;5012262;28;20192;-60
2022/09/18 04:33:32;;;;;;;0.87;0.67;;;7.80;89.50;;;;;;5004730;28;20229;-60
2022/09/18 04:35:58;;;;;;;0.90;0.63;;;7.70;89.10;;;;;;4982347;28;20208;-60
2022/09/18 04:38:28;;;;;;;0.87;0.70;;;7.80;89.10;;;;;;5003458;28;20197;-58
2022/09/18 04:40:58;;;;;;;0.93;0.83;;;7.80;89.20;;;;;;4987520;28;20272;-58
2022/09/18 04:43:26;;;;;;;2.17;0.87;;;7.80;89.50;;;;;;5013151;28;20464;-58
2022/09/18 04:45:52;;;;;;;0.70;0.70;;;7.80;89.10;;;;;;5013144;28;20439;-58
2022/09/18 04:48:19;;;;;;;1.90;0.73;;;7.80;89.20;;;;;;4981038;28;20420;-58
2022/09/18 04:50:46;;;;;;;1.43;0.63;;;7.80;88.90;;;;;;5020030;28;20514;-58
2022/09/18 04:53:12;;;;;;;1.80;0.77;;;7.80;89.00;;;;;;5017377;28;20448;-58
2022/09/18 04:55:38;;;;;;;2.87;0.67;;;7.90;89.20;;;;;;5014624;28;20424;-58
2022/09/18 04:58:05;;;;;;;0.80;0.60;;;7.80;88.60;;;;;;5006370;28;20440;-58
2022/09/18 05:00:31;;;;;;;0.80;0.80;;;7.90;88.80;;;;;;5009584;28;20451;-58
2022/09/18 05:02:57;;;;;;;0.80;0.67;;;7.80;89.00;;;;;;5012149;28;20468;-58
2022/09/18 05:05:23;;;;;;;2.37;0.93;;;7.80;89.10;;;;;;4993921;28;20432;-59
2022/09/18 05:07:49;;;;;;;3.13;0.70;;;7.80;88.80;;;;;;4993003;28;20189;-59
2022/09/18 05:10:15;;;;;;;3.10;0.70;;;7.90;89.10;;;;;;4996184;28;20197;-59
2022/09/18 05:12:41;;;;;;;3.43;1.10;;;7.90;89.20;;;;;;5011318;28;20196;-59
2022/09/18 05:15:07;;;;;;;0.73;0.73;;;7.90;89.00;;;;;;5012208;28;20284;-59
2022/09/18 05:17:33;;;;;;;2.20;0.93;;;7.80;88.70;;;;;;5023454;28;20431;-58
2022/09/18 05:19:59;;;;;;;0.70;0.70;;;7.90;88.70;;;;;;4998401;28;20436;-58
2022/09/18 05:22:24;;;;;;;0.90;0.80;;;7.80;88.60;;;;;;4990614;28;20220;-58
2022/09/18 05:24:50;;;;;;;1.03;0.80;;;7.90;89.00;;;;;;5018345;28;20193;-59
2022/09/18 05:27:16;;;;;;;1.57;0.90;;;7.80;88.90;;;;;;5039867;28;20220;-60
2022/09/18 05:29:41;;;;;;;2.37;1.20;;;7.80;88.60;;;;;;4979100;28;20188;-59
2022/09/18 05:32:07;;;;;;;3.07;2.87;;;7.80;89.50;;;;;;4993538;28;20192;-59
2022/09/18 05:34:33;;;;;;;3.50;1.50;;;7.90;89.50;;;;;;5015926;28;20295;-58
2022/09/18 05:36:58;;;;;;;6.23;1.67;;;7.90;89.20;;;;;;5011477;28;20199;-59
2022/09/18 05:39:24;;;;;;;2.10;0.70;;;8.00;89.60;;;;;;4991841;28;20201;-58
2022/09/18 05:41:50;;;;;;;3.10;0.80;;;8.00;89.50;;;;;;5012242;28;20193;-58
2022/09/18 05:44:17;;;;;;;1.37;1.00;;;8.00;89.30;;;;;;5015838;28;20224;-59
2022/09/18 05:46:42;;;;;;;2.73;1.60;;;8.10;89.30;;;;;;4984020;28;20419;-59
2022/09/18 05:49:08;;;;;;;0.97;0.80;;;8.10;89.30;;;;;;4992400;28;20527;-59
2022/09/18 05:51:34;;;;;;;0.83;0.83;;;8.10;89.60;;;;;;5001017;28;20284;-58
2022/09/18 05:53:59;;;;;;;0.87;0.83;;;8.10;89.70;;;;;;5004449;28;20227;-58
2022/09/18 05:56:26;;;;;;;1.63;0.80;;;8.10;89.80;;;;;;4993507;28;20208;-58
2022/09/18 05:58:53;;;;;;;1.33;0.80;;;8.10;89.50;;;;;;4994533;28;20203;-58
2022/09/18 06:01:18;;;;;;;2.53;0.53;;;8.10;90.10;;;;;;4996237;28;20459;-58
2022/09/18 06:03:44;;;;;;;2.40;0.90;;;8.20;90.00;;;;;;5015593;28;20471;-58
2022/09/18 06:06:10;;;;;;;1.60;0.97;;;8.30;90.20;;;;;;5007458;28;20197;-59
2022/09/18 06:08:36;;;;;;;0.57;0.57;;;8.30;90.20;;;;;;5031344;28;20196;-59
2022/09/18 06:11:02;;;;;;;6.50;2.83;;;8.30;90.20;;;;;;4998778;28;20427;-59
2022/09/18 06:13:28;;;;;;;4.10;2.60;;;8.30;89.90;;;;;;4978985;28;20229;-59
2022/09/18 06:15:54;;;;;;;6.07;3.20;;;8.30;90.10;;;;;;5013040;28;20517;-59
2022/09/18 06:18:20;;;;;;;10.37;5.57;;;8.40;90.10;;;;;;5032482;28;20193;-58
2022/09/18 06:20:55;;;;;;;7.57;4.43;;;8.40;90.20;;;;;;4982059;28;20659;-61
2022/09/18 06:23:25;;;;;;;6.30;3.77;;;8.50;90.30;;;;;;4996812;28;20317;-60
2022/09/18 06:25:58;;;;;;;2.73;2.23;;;8.50;90.40;;;;;;5004540;28;20444;-60
2022/09/18 06:28:24;;;;;;;2.90;2.17;;;8.60;90.20;;;;;;4994293;28;20433;-60
2022/09/18 06:30:50;;;;;;;1.90;1.70;;;8.70;90.00;;;;;;4988024;28;20446;-60
2022/09/18 06:33:16;;;;;;;1.60;1.40;;;8.70;89.40;;;;;;4994743;28;20268;-60
2022/09/18 06:35:42;;;;;;;2.50;2.00;;;8.80;89.70;;;;;;5001000;28;20201;-60
2022/09/18 06:38:09;;;;;;;2.03;1.80;;;8.80;89.90;;;;;;4978265;28;20203;-60
2022/09/18 06:40:35;;;;;;;2.97;1.83;;;8.80;89.80;;;;;;5003347;28;20193;-60
2022/09/18 06:43:02;;;;;;;7.17;5.33;;;8.80;89.70;;;;;;4998934;28;20479;-60
2022/09/18 06:45:29;;;;;;;6.93;5.50;;;8.80;89.80;;;;;;5012532;28;20193;-60
2022/09/18 06:48:00;;;;;;;7.27;4.37;;;8.80;89.90;;;;;;5015103;28;20463;-60
2022/09/18 06:50:26;;;;;;;5.23;4.27;;;8.90;90.00;;;;;;4981010;28;20423;-60
2022/09/18 06:52:51;;;;;;;5.80;3.80;;;8.90;90.10;;;;;;5026778;28;20440;-59
2022/09/18 06:55:17;;;;;;;4.83;3.07;;;8.90;89.90;;;;;;5000906;28;20195;-59
2022/09/18 06:57:53;;;;;;;4.63;2.63;;;9.00;90.00;;;;;;5010340;28;20208;-59
2022/09/18 07:00:19;;;;;;;3.93;2.50;;;9.00;89.50;;;;;;5012590;28;20447;-59
2022/09/18 07:02:45;;;;;;;3.73;1.97;;;9.00;89.70;;;;;;5007160;28;20487;-59
2022/09/18 07:05:10;;;;;;;3.47;2.10;;;9.10;89.50;;;;;;4998857;28;20254;-59
2022/09/18 07:07:36;;;;;;;1.93;1.73;;;9.10;89.50;;;;;;5009592;28;20189;-59
2022/09/18 07:10:01;;;;;;;1.70;1.60;;;9.20;89.80;;;;;;5009107;28;20204;-58
2022/09/18 07:12:28;;;;;;;4.90;1.70;;;9.30;89.70;;;;;;4977916;28;20200;-58
2022/09/18 07:14:53;;;;;;;2.63;1.97;;;9.30;89.60;;;;;;5023713;28;20197;-59
2022/09/18 07:17:19;;;;;;;2.63;1.70;;;9.30;89.80;;;;;;4964681;28;20446;-61
2022/09/18 07:19:45;;;;;;;1.90;1.70;;;9.40;90.00;;;;;;5004776;28;20207;-60
2022/09/18 07:22:12;;;;;;;3.93;1.70;;;9.50;89.70;;;;;;4996817;28;20203;-59
2022/09/18 07:24:38;;;;;;;1.97;1.37;;;9.50;88.60;;;;;;4978083;28;20188;-62
2022/09/18 07:27:03;;;;;;;1.67;1.27;;;9.60;88.70;;;;;;4988631;28;20456;-60
2022/09/18 07:29:29;;;;;;;1.40;1.30;;;9.60;87.60;;;;;;5000421;28;20202;-59
2022/09/18 07:31:55;;;;;;;1.83;1.10;;;9.60;87.70;;;;;;5002976;28;20287;-59
2022/09/18 07:34:21;;;;;;;1.83;1.27;;;9.70;87.30;;;;;;5001852;28;20196;-60
2022/09/18 07:36:49;;;;;;;1.07;0.93;;;9.80;88.20;;;;;;5024300;28;20204;-60
2022/09/18 07:39:15;;;;;;;2.90;1.10;;;9.80;87.50;;;;;;5004232;28;20196;-60
2022/09/18 07:41:42;;;;;;;1.17;1.00;;;9.80;84.50;;;;;;5002098;28;20458;-61
2022/09/18 07:44:08;;;;;;;1.27;1.17;;;9.90;86.00;;;;;;5011036;28;20232;-60
2022/09/18 07:46:34;;;;;;;2.67;1.00;;;10.00;87.20;;;;;;5000677;28;20530;-60
2022/09/18 07:49:00;;;;;;;2.07;1.00;;;10.10;86.80;;;;;;4999495;28;20518;-60
2022/09/18 07:51:26;;;;;;;1.40;1.30;;;10.10;86.00;;;;;;4994975;28;20197;-60
2022/09/18 07:53:51;;;;;;;2.80;1.43;;;10.20;87.20;;;;;;4997716;28;20262;-61
2022/09/18 07:56:17;;;;;;;1.13;1.00;;;10.30;87.90;;;;;;5004749;28;20436;-60
2022/09/18 07:58:43;;;;;;;2.17;1.30;;;10.30;88.50;;;;;;4983928;28;20201;-61
2022/09/18 08:01:08;;;;;;;1.23;1.00;;;10.40;88.90;;;;;;5025956;28;20201;-60
2022/09/18 08:03:35;;;;;;;2.90;1.10;;;10.40;89.00;;;;;;5003256;28;20223;-60
2022/09/18 08:06:00;;;;;;;1.60;1.27;;;10.50;88.50;;;;;;5000116;28;20196;-60
2022/09/18 08:08:26;;;;;;;1.00;0.90;;;10.50;87.60;;;;;;4987169;28;20435;-60
2022/09/18 08:10:55;;;;;;;2.17;1.17;;;10.60;88.10;;;;;;4996553;28;20181;-60
2022/09/18 08:13:21;;;;;;;1.33;1.00;;;10.70;88.40;;;;;;4983800;28;20201;-60
2022/09/18 08:15:47;;;;;;;1.63;0.90;;;10.80;88.50;;;;;;5014799;28;20252;-60
2022/09/18 08:18:13;;;;;;;2.47;1.00;;;10.90;88.40;;;;;;4978598;28;20197;-60
2022/09/18 08:20:39;;;;;;;1.83;0.80;;;11.00;88.10;;;;;;5012749;28;20189;-60
2022/09/18 08:23:08;;;;;;;1.10;0.83;;;11.10;86.80;;;;;;5003654;28;20235;-60
2022/09/18 08:25:34;;;;;;;1.70;0.50;;;11.20;85.70;;;;;;5028991;28;20231;-61
2022/09/18 08:28:05;;;;;;;0.63;0.57;;;11.30;85.90;;;;;;4993008;28;20185;-61
2022/09/18 08:30:31;;;;;;;2.07;0.80;;;11.30;86.60;;;;;;5011619;28;20191;-61
2022/09/18 08:33:01;;;;;;;0.60;0.60;;;11.40;87.10;;;;;;5016026;28;20274;-60
2022/09/18 08:35:28;;;;;;;1.33;1.13;;;11.30;81.60;;;;;;4986647;28;20204;-61
2022/09/18 08:37:54;;;;;;;1.47;0.60;;;11.50;79.80;;;;;;5000787;28;20197;-61
2022/09/18 08:40:24;;;;;;;0.70;0.70;;;11.40;77.90;;;;;;5010689;28;20192;-60
2022/09/18 08:42:59;;;;;;;2.93;0.50;;;11.50;80.90;;;;;;5015453;28;20208;-61
2022/09/18 08:45:45;;;;;;;0.30;0.30;;;11.40;77.80;;;;;;5013909;28;20194;-60
2022/09/18 08:48:19;;;;;;;1.33;0.97;;;11.50;79.90;;;;;;5024492;28;20188;-60
2022/09/18 08:50:57;;;;;;;0.63;0.63;;;11.60;82.30;;;;;;4980571;28;20193;-61
2022/09/18 08:53:30;;;;;;;1.47;0.60;;;11.60;81.60;;;;;;5013850;28;20195;-61
2022/09/18 08:55:59;;;;;;;0.60;0.50;;;11.60;79.40;;;;;;5016964;28;20185;-60
2022/09/18 08:58:36;;;;;;;0.40;0.40;;;12.00;69.00;;;;;;4992440;28;20196;-60
2022/09/18 09:01:14;;;;;;;0.47;0.47;;;12.30;69.20;;;;;;5004892;28;20185;-60
2022/09/18 09:04:05;;;;;;;0.47;0.47;;;12.30;66.00;;;;;;4990197;28;20204;-60
2022/09/18 09:06:31;;;;;;;0.43;0.30;;;12.50;66.40;;;;;;5009429;28;20202;-60
2022/09/18 09:09:31;;;;;;;0.57;0.40;;;12.50;70.50;;;;;;5023226;28;20188;-61
2022/09/18 09:12:21;;;;;;;1.87;0.60;;;12.50;74.10;;;;;;5024837;28;20199;-59
2022/09/18 09:15:03;;;;;;;2.93;0.50;;;12.70;71.80;;;;;;5000542;28;20185;-59
2022/09/18 09:17:52;;;;;;;1.63;0.40;;;13.00;68.60;;;;;;5011775;28;20189;-60
2022/09/18 09:20:22;;;;;;;1.27;0.40;;;13.20;64.90;;;;;;5016573;28;20259;-60
2022/09/18 09:23:15;;;;;;;0.43;0.40;;;13.30;61.20;;;;;;5012409;28;20309;-61
2022/09/18 09:25:49;;;;;;;0.43;0.27;;;13.30;66.80;;;;;;5017518;28;20184;-60
2022/09/18 09:28:22;;;;;;;0.20;0.20;;;13.40;59.80;;;;;;5016595;28;20184;-60
2022/09/18 09:30:54;;;;;;;0.27;0.20;;;13.50;57.70;;;;;;5023374;28;20193;-61
2022/09/18 09:33:22;;;;;;;0.27;0.23;;;13.70;53.90;;;;;;4979888;28;20256;-61
2022/09/18 09:35:53;;;;;;;0.50;0.30;;;13.70;51.90;;;;;;4981060;28;20225;-60
2022/09/18 09:38:56;;;;;;;0.30;0.30;;;13.70;54.80;;;;;;5011280;28;20222;-60
2022/09/18 09:41:25;;;;;;;0.93;0.30;;;13.70;57.00;;;;;;5015618;28;20204;-61
2022/09/18 09:44:03;;;;;;;0.50;0.10;;;13.80;52.50;;;;;;5011276;28;20223;-60
2022/09/18 09:46:52;;;;;;;0.20;0.20;;;14.00;52.50;;;;;;5013323;28;20228;-61
2022/09/18 09:49:23;;;;;;;0.30;0.30;;;14.10;55.10;;;;;;5023383;28;20189;-59
2022/09/18 09:52:04;;;;;;;0.47;0.27;;;14.10;51.20;;;;;;4992255;28;20203;-59
2022/09/18 09:54:31;;;;;;;0.40;0.27;;;14.20;50.80;;;;;;4985380;28;20212;-60
2022/09/18 09:57:18;;;;;;;0.30;0.30;;;14.20;54.10;;;;;;4981201;28;20194;-60
2022/09/18 10:00:14;;;;;;;0.20;0.20;;;14.10;55.90;;;;;;4986061;28;20188;-60
2022/09/18 10:03:04;;;;;;;0.33;0.20;;;14.10;54.70;;;;;;4980175;28;20255;-59
2022/09/18 10:05:45;;;;;;;0.30;0.20;;;14.30;49.90;;;;;;4987440;28;20184;-60
2022/09/18 10:08:34;;;;;;;0.60;0.60;;;14.30;48.80;;;;;;5013884;28;20191;-60
2022/09/18 10:11:03;;;;;;;0.30;0.30;;;14.40;49.20;;;;;;4991307;28;20213;-60
2022/09/18 10:13:43;;;;;;;0.23;0.23;;;14.30;52.90;;;;;;5018584;28;20203;-59
2022/09/18 10:16:15;;;;;;;0.20;0.20;;;14.40;48.00;;;;;;4977517;28;20209;-59
2022/09/18 10:18:44;;;;;;;0.10;0.10;;;14.50;49.40;;;;;;4990075;28;20196;-61
2022/09/18 10:21:15;;;;;;;0.27;0.27;;;14.70;50.40;;;;;;4976030;28;20196;-60
2022/09/18 10:23:46;;;;;;;1.47;0.30;;;14.60;48.30;;;;;;5024009;28;20271;-60
2022/09/18 10:26:32;;;;;;;0.47;0.40;;;14.60;47.00;;;;;;5023426;28;20272;-61
2022/09/18 10:28:59;;;;;;;0.43;0.33;;;14.70;51.40;;;;;;4987662;28;20197;-60
2022/09/18 10:32:11;;;;;;;0.40;0.20;;;14.70;49.90;;;;;;5020307;28;20197;-60
2022/09/18 10:34:49;;;;;;;0.40;0.40;;;14.70;50.50;;;;;;4994313;28;20212;-60
2022/09/18 10:37:15;;;;;;;1.33;0.60;;;14.80;50.30;;;;;;4977176;28;20188;-60
2022/09/18 10:39:53;;;;;;;1.70;0.30;;;14.70;47.80;;;;;;5022276;28;20272;-60
2022/09/18 10:42:22;;;;;;;0.40;0.40;;;14.80;50.10;;;;;;5009938;28;20211;-60
2022/09/18 10:44:52;;;;;;;0.70;0.60;;;14.70;47.50;;;;;;5014203;28;20244;-59
2022/09/18 10:47:21;;;;;;;0.40;0.37;;;14.80;48.00;;;;;;5025283;28;20189;-60
2022/09/18 10:50:05;;;;;;;1.23;0.50;;;14.80;49.80;;;;;;5022149;28;20189;-59
2022/09/18 10:52:39;;;;;;;0.70;0.63;;;14.70;52.10;;;;;;5014291;28;20185;-59
2022/09/18 10:55:05;;;;;;;1.07;0.30;;;14.80;49.20;;;;;;5024360;28;20191;-59
2022/09/18 10:57:33;;;;;;;0.67;0.67;;;14.80;48.20;;;;;;4992377;28;20182;-59
2022/09/18 11:00:01;;;;;;;0.87;0.40;;;14.80;47.10;;;;;;4976829;28;20221;-59
2022/09/18 11:02:34;;;;;;;0.20;0.20;;;14.80;49.50;;;;;;5004351;28;20185;-59
2022/09/18 11:05:02;;;;;;;0.40;0.30;;;14.90;45.60;;;;;;5012151;28;20189;-59
2022/09/18 11:07:27;;;;;;;0.40;0.40;;;15.10;46.80;;;;;;5028128;28;20281;-59
2022/09/18 11:09:53;;;;;;;0.33;0.33;;;15.10;48.70;;;;;;4988980;28;20276;-59
2022/09/18 11:12:26;;;;;;;2.93;1.73;;;15.10;49.00;;;;;;5014158;28;20264;-58
2022/09/18 11:15:03;;;;;;;3.30;1.97;;;15.20;55.70;;;;;;4999346;28;20192;-58
2022/09/18 11:17:32;;;;;;;2.20;1.30;;;15.20;53.60;;;;;;5018486;28;20195;-59
2022/09/18 11:20:00;;;;;;;0.67;0.53;;;15.30;52.50;;;;;;4986201;28;20236;-59
2022/09/18 11:22:43;;;;;;;0.67;0.60;;;15.30;50.60;;;;;;4982014;28;20189;-58
2022/09/18 11:25:20;;;;;;;0.23;0.20;;;15.40;53.10;;;;;;5012374;28;20220;-59
2022/09/18 11:27:58;;;;;;;0.30;0.30;;;15.50;46.50;;;;;;4991729;28;20239;-60
2022/09/18 11:30:32;;;;;;;0.27;0.27;;;15.50;49.50;;;;;;5020016;28;20184;-60
2022/09/18 11:33:21;;;;;;;0.13;0.13;;;15.50;47.00;;;;;;5014843;28;20378;-60
2022/09/18 11:35:54;;;;;;;0.27;0.20;;;15.50;48.40;;;;;;5009609;28;20184;-60
2022/09/18 11:38:19;;;;;;;0.30;0.30;;;15.60;51.30;;;;;;5019050;28;20503;-60
2022/09/18 11:40:56;;;;;;;0.40;0.40;;;15.80;50.60;;;;;;4997236;28;20193;-60
2022/09/18 11:43:33;;;;;;;0.57;0.50;;;15.80;51.90;;;;;;5015341;28;20224;-60
2022/09/18 11:46:43;;;;;;;0.20;0.20;;;15.80;55.40;;;;;;4987212;28;20192;-60
2022/09/18 11:49:18;;;;;;;0.93;0.57;;;15.80;55.20;;;;;;4990000;28;20191;-60
2022/09/18 11:52:25;;;;;;;1.70;0.53;;;15.70;52.00;;;;;;5020232;28;20184;-60
2022/09/18 11:55:14;;;;;;;2.70;0.40;;;15.70;54.40;;;;;;4999620;28;20239;-60
2022/09/18 11:57:44;;;;;;;0.20;0.20;;;15.70;60.40;;;;;;5016533;28;20189;-60
2022/09/18 12:00:19;;;;;;;1.07;0.40;;;15.80;61.20;;;;;;4989752;28;20252;-60
2022/09/18 12:02:45;;;;;;;0.30;0.30;;;15.80;51.90;;;;;;5013841;28;20229;-60
2022/09/18 12:05:35;;;;;;;0.33;0.33;;;15.80;52.50;;;;;;4985967;28;20253;-60
2022/09/18 12:08:14;;;;;;;0.57;0.33;;;15.80;52.80;;;;;;4983576;28;20184;-60
2022/09/18 12:11:14;;;;;;;0.30;0.30;;;15.70;53.40;;;;;;5014013;28;20184;-60
2022/09/18 12:13:54;;;;;;;1.63;0.50;;;15.70;53.00;;;;;;4989497;28;20191;-60
2022/09/18 12:16:40;;;;;;;0.30;0.30;;;15.70;55.30;;;;;;4975751;28;20189;-60
2022/09/18 12:19:15;;;;;;;0.40;0.30;;;15.70;55.80;;;;;;4991804;28;20212;-60
2022/09/18 12:21:53;;;;;;;1.47;0.20;;;15.70;52.00;;;;;;4979734;28;20196;-60
2022/09/18 12:24:19;;;;;;;0.30;0.30;;;15.70;56.10;;;;;;5018041;28;20299;-60
2022/09/18 12:27:16;;;;;;;2.73;0.50;;;15.70;59.30;;;;;;5017057;28;20278;-60
2022/09/18 12:30:06;;;;;;;2.97;0.33;;;15.60;62.50;;;;;;4989055;28;20197;-59
2022/09/18 12:32:46;;;;;;;1.40;0.40;;;15.60;63.90;;;;;;5027241;28;20225;-60
2022/09/18 12:35:59;;;;;;;0.37;0.30;;;15.50;65.60;;;;;;5016425;28;20188;-60
2022/09/18 12:39:01;;;;;;;0.60;0.40;;;15.50;65.60;;;;;;5025290;28;20242;-60
2022/09/18 12:41:56;;;;;;;0.30;0.30;;;15.80;65.30;;;;;;5018485;28;20220;-60
2022/09/18 12:44:41;;;;;;;1.33;0.70;;;15.90;67.00;;;;;;4992520;28;20248;-60
2022/09/18 12:47:28;;;;;;;0.33;0.33;;;15.90;66.80;;;;;;5018504;28;20320;-60
2022/09/18 12:50:32;;;;;;;1.53;0.60;;;16.00;66.10;;;;;;4978369;28;20185;-60
2022/09/18 12:53:25;;;;;;;0.40;0.40;;;15.90;65.60;;;;;;5024992;28;20191;-60
2022/09/18 12:55:56;;;;;;;1.23;0.60;;;15.90;67.80;;;;;;5025847;28;20185;-60
2022/09/18 12:58:58;;;;;;;0.40;0.40;;;15.80;69.10;;;;;;4997072;28;20189;-60
2022/09/18 13:01:31;;;;;;;1.07;0.40;;;15.70;67.00;;;;;;5020798;28;20196;-60
2022/09/18 13:04:18;;;;;;;0.73;0.53;;;15.60;68.40;;;;;;5011552;28;20209;-60
2022/09/18 13:06:52;;;;;;;0.43;0.33;;;15.50;68.00;;;;;;4982080;28;20193;-60
2022/09/18 13:09:26;;;;;;;0.30;0.30;;;15.40;66.60;;;;;;4991863;28;20267;-60
2022/09/18 13:11:58;;;;;;;0.40;0.40;;;15.40;66.20;;;;;;5020356;28;20193;-60
2022/09/18 13:14:42;;;;;;;0.43;0.40;;;15.30;65.30;;;;;;4989067;28;20267;-60
2022/09/18 13:17:26;;;;;;;1.50;0.40;;;15.30;67.60;;;;;;5019109;28;20236;-60
2022/09/18 13:19:59;;;;;;;0.90;0.47;;;15.40;67.70;;;;;;4991091;28;20193;-60